createdAt,value
2019-06-10T00:01:12.535Z,20.50
2019-06-10T00:03:43.045Z,20.30
2019-06-10T00:06:13.589Z,20.50
2019-06-10T00:08:44.165Z,20.40
2019-06-10T00:11:14.743Z,20.30
2019-06-10T00:13:45.238Z,20.50
2019-06-10T00:16:15.737Z,20.30
2019-06-10T00:18:46.771Z,20.50
2019-06-10T00:21:17.297Z,20.30
2019-06-10T00:23:47.761Z,20.40
2019-06-10T00:26:18.175Z,20.30
2019-06-10T00:28:52.742Z,20.20
2019-06-10T00:31:23.197Z,20.20
2019-06-10T00:33:53.668Z,20.20
2019-06-10T00:36:24.057Z,20.10
2019-06-10T00:38:56.046Z,20.20
2019-06-10T00:41:26.536Z,20.10
2019-06-10T00:43:57.152Z,20.10
2019-06-10T00:46:27.644Z,20.00
2019-06-10T00:48:58.182Z,20.00
2019-06-10T00:51:28.769Z,20.10
2019-06-10T00:54:02.027Z,19.90
2019-06-10T00:56:32.115Z,19.90
2019-06-10T00:59:04.124Z,19.80
2019-06-10T01:01:34.801Z,19.80
2019-06-10T01:04:06.943Z,19.80
2019-06-10T01:06:37.639Z,19.70
2019-06-10T01:09:12.743Z,19.70
2019-06-10T01:11:41.846Z,19.70
2019-06-10T01:14:14.151Z,19.80
2019-06-10T01:16:44.396Z,19.80
2019-06-10T01:19:15.740Z,19.70
2019-06-10T01:21:46.510Z,19.90
2019-06-10T01:24:17.505Z,19.70
2019-06-10T01:26:47.941Z,19.70
2019-06-10T01:29:20.837Z,19.70
2019-06-10T01:31:51.856Z,19.70
2019-06-10T01:40:31.395Z,19.70
2019-06-10T01:43:01.569Z,19.70
2019-06-10T01:45:32.069Z,19.50
2019-06-10T01:48:02.624Z,19.60
2019-06-10T01:50:33.819Z,19.60
2019-06-10T01:53:04.437Z,19.60
2019-06-10T01:55:34.996Z,19.60
2019-06-10T01:58:06.303Z,19.60
2019-06-10T02:00:41.850Z,19.50
2019-06-10T02:03:16.211Z,19.60
2019-06-10T02:05:44.515Z,19.50
2019-06-10T02:08:16.297Z,19.70
2019-06-10T02:10:47.499Z,19.70
2019-06-10T02:13:33.490Z,19.50
2019-06-10T02:16:05.688Z,19.50
2019-06-10T02:18:36.296Z,19.40
2019-06-10T02:21:06.915Z,19.50
2019-06-10T02:23:37.503Z,19.30
2019-06-10T02:26:08.123Z,19.60
2019-06-10T02:28:40.590Z,19.30
2019-06-10T02:31:14.210Z,19.30
2019-06-10T02:33:42.944Z,19.50
2019-06-10T02:36:17.275Z,19.50
2019-06-10T02:38:45.622Z,19.50
2019-06-10T02:41:20.610Z,19.40
2019-06-10T02:43:49.514Z,19.40
2019-06-10T02:46:28.505Z,19.40
2019-06-10T02:48:54.489Z,19.50
2019-06-10T02:51:30.684Z,19.30
2019-06-10T02:53:57.576Z,19.30
2019-06-10T02:56:30.978Z,19.20
2019-06-10T02:59:03.183Z,19.50
2019-06-10T03:01:37.864Z,19.30
2019-06-10T03:04:06.790Z,19.20
2019-06-10T03:06:40.297Z,19.00
2019-06-10T03:09:09.493Z,19.20
2019-06-10T03:11:40.164Z,19.00
2019-06-10T03:14:12.988Z,19.30
2019-06-10T03:16:44.755Z,19.20
2019-06-10T03:19:15.856Z,19.30
2019-06-10T03:21:46.884Z,19.40
2019-06-10T03:24:17.450Z,19.10
2019-06-10T03:26:48.770Z,19.40
2019-06-10T03:29:20.557Z,19.30
2019-06-10T03:31:55.311Z,19.20
2019-06-10T03:34:33.433Z,19.40
2019-06-10T03:36:56.190Z,19.50
2019-06-10T03:39:32.137Z,19.60
2019-06-10T03:42:02.613Z,19.70
2019-06-10T03:44:33.167Z,19.80
2019-06-10T03:47:03.597Z,20.20
2019-06-10T03:49:46.637Z,20.30
2019-06-10T03:52:06.294Z,20.50
2019-06-10T03:54:36.759Z,20.50
2019-06-10T03:57:07.306Z,20.60
2019-06-10T03:59:37.768Z,20.60
2019-06-10T04:02:08.355Z,20.80
2019-06-10T04:04:38.830Z,21.00
2019-06-10T04:07:09.255Z,21.20
2019-06-10T04:09:42.509Z,21.30
2019-06-10T04:12:19.434Z,21.30
2019-06-10T04:14:52.067Z,21.10
2019-06-10T04:17:24.109Z,21.00
2019-06-10T04:20:07.949Z,21.10
2019-06-10T04:22:28.401Z,21.30
2019-06-10T04:24:59.062Z,21.20
2019-06-10T04:27:29.554Z,21.30
2019-06-10T04:29:59.933Z,21.20
2019-06-10T04:32:32.274Z,21.40
2019-06-10T04:35:02.629Z,22.20
2019-06-10T04:37:33.179Z,22.50
2019-06-10T04:40:05.486Z,22.50
2019-06-10T04:42:37.485Z,23.10
2019-06-10T04:45:09.129Z,23.20
2019-06-10T04:47:39.672Z,24.00
2019-06-10T04:50:23.632Z,25.70
2019-06-10T04:52:43.651Z,25.70
2019-06-10T04:55:15.422Z,27.60
2019-06-10T04:57:45.969Z,27.50
2019-06-10T05:00:19.162Z,27.90
2019-06-10T05:02:52.091Z,28.10
2019-06-10T05:05:24.045Z,28.10
2019-06-10T05:07:54.245Z,28.10
2019-06-10T05:10:26.694Z,28.30
2019-06-10T05:12:57.078Z,28.90
2019-06-10T05:15:28.457Z,29.00
2019-06-10T05:17:59.768Z,29.50
2019-06-10T05:20:50.344Z,30.30
2019-06-10T05:23:02.371Z,30.40
2019-06-10T05:25:32.963Z,30.50
2019-06-10T05:28:03.615Z,30.40
2019-06-10T05:30:34.255Z,30.40
2019-06-10T05:33:04.991Z,31.20
2019-06-10T05:35:35.366Z,31.60
2019-06-10T05:38:05.922Z,31.70
2019-06-10T05:40:36.517Z,31.60
2019-06-10T05:43:07.894Z,31.90
2019-06-10T05:45:38.382Z,32.30
2019-06-10T05:48:08.887Z,32.50
2019-06-10T05:50:42.652Z,32.40
2019-06-10T05:53:13.096Z,32.90
2019-06-10T05:55:43.597Z,33.40
2019-06-10T05:58:14.155Z,33.20
2019-06-10T06:00:44.677Z,33.50
2019-06-10T06:03:22.994Z,33.30
2019-06-10T06:05:53.474Z,33.60
2019-06-10T06:08:25.054Z,33.60
2019-06-10T06:10:55.834Z,33.90
2019-06-10T06:13:27.358Z,33.90
2019-06-10T06:15:57.990Z,33.70
2019-06-10T06:18:29.967Z,33.70
2019-06-10T06:21:19.963Z,33.80
2019-06-10T06:23:34.861Z,33.90
2019-06-10T06:26:05.232Z,34.40
2019-06-10T06:28:36.178Z,34.90
2019-06-10T06:31:06.804Z,35.20
2019-06-10T06:33:39.713Z,35.10
2019-06-10T06:36:12.334Z,35.30
2019-06-10T06:38:43.894Z,35.70
2019-06-10T06:41:14.267Z,35.80
2019-06-10T06:43:45.683Z,35.40
2019-06-10T06:46:16.190Z,35.60
2019-06-10T06:48:46.636Z,36.00
2019-06-10T06:51:24.946Z,35.90
2019-06-10T06:53:52.954Z,36.10
2019-06-10T06:56:23.018Z,36.20
2019-06-10T06:58:53.787Z,36.80
2019-06-10T07:01:25.875Z,36.90
2019-06-10T07:03:56.739Z,37.30
2019-06-10T07:06:28.044Z,37.80
2019-06-10T07:09:04.612Z,37.70
2019-06-10T07:11:37.390Z,37.70
2019-06-10T07:14:10.127Z,37.80
2019-06-10T07:16:44.226Z,38.00
2019-06-10T07:19:13.180Z,38.10
2019-06-10T07:22:04.168Z,38.80
2019-06-10T07:24:16.194Z,38.60
2019-06-10T07:26:52.179Z,39.10
2019-06-10T07:29:19.146Z,38.70
2019-06-10T07:31:51.058Z,38.40
2019-06-10T07:34:22.264Z,38.20
2019-06-10T07:36:52.907Z,38.20
2019-06-10T07:39:23.478Z,38.80
2019-06-10T07:41:53.920Z,38.50
2019-06-10T07:44:25.215Z,38.60
2019-06-10T07:46:55.866Z,38.00
2019-06-10T07:49:26.320Z,37.60
2019-06-10T07:52:09.582Z,37.80
2019-06-10T07:54:29.457Z,37.40
2019-06-10T07:57:02.267Z,37.30
2019-06-10T07:59:33.492Z,37.10
2019-06-10T08:02:04.406Z,37.40
2019-06-10T08:04:36.429Z,38.20
2019-06-10T08:07:07.196Z,38.30
2019-06-10T08:09:38.949Z,38.10
2019-06-10T08:12:09.618Z,38.30
2019-06-10T08:14:42.283Z,38.60
2019-06-10T08:17:12.924Z,38.80
2019-06-10T08:19:49.530Z,38.50
2019-06-10T08:22:29.852Z,38.40
2019-06-10T08:24:48.454Z,37.90
2019-06-10T08:27:19.557Z,37.90
2019-06-10T08:30:12.898Z,37.80
2019-06-10T08:32:24.497Z,38.30
2019-06-10T08:34:54.592Z,38.90
2019-06-10T08:37:25.055Z,39.20
2019-06-10T08:39:55.504Z,39.10
2019-06-10T08:42:25.921Z,39.20
2019-06-10T08:44:59.939Z,39.30
2019-06-10T08:47:29.416Z,39.50
2019-06-10T08:50:02.458Z,39.80
2019-06-10T08:52:49.408Z,39.60
2019-06-10T08:55:07.815Z,40.00
2019-06-10T08:57:39.807Z,40.20
2019-06-10T09:00:16.292Z,40.30
2019-06-10T09:02:49.975Z,40.10
2019-06-10T09:05:23.046Z,40.00
2019-06-10T09:07:54.492Z,39.70
2019-06-10T09:10:25.041Z,39.80
2019-06-10T09:12:55.572Z,39.90
2019-06-10T09:15:27.698Z,40.20
2019-06-10T09:17:58.331Z,40.20
2019-06-10T09:20:29.661Z,40.50
2019-06-10T09:23:18.429Z,40.60
2019-06-10T09:25:33.579Z,40.30
2019-06-10T09:28:04.157Z,40.00
2019-06-10T09:30:35.750Z,39.60
2019-06-10T09:33:06.334Z,39.40
2019-06-10T09:35:37.607Z,39.40
2019-06-10T09:38:08.124Z,39.30
2019-06-10T09:41:01.229Z,39.20
2019-06-10T09:43:26.578Z,38.60
2019-06-10T09:45:58.484Z,38.40
2019-06-10T09:48:29.228Z,38.60
2019-06-10T09:51:02.279Z,38.80
2019-06-10T09:53:41.203Z,37.90
2019-06-10T09:56:04.534Z,36.90
2019-06-10T09:58:35.352Z,36.40
2019-06-10T10:01:05.955Z,35.80
2019-06-10T10:03:41.047Z,35.20
2019-06-10T10:06:15.733Z,35.20
2019-06-10T10:08:46.007Z,35.50
2019-06-10T10:11:16.579Z,36.40
2019-06-10T10:13:49.450Z,36.40
2019-06-10T10:16:19.456Z,36.40
2019-06-10T10:18:56.452Z,36.70
2019-06-10T10:21:22.534Z,37.10
2019-06-10T10:24:06.948Z,37.00
2019-06-10T10:26:26.378Z,36.90
2019-06-10T10:28:57.249Z,36.30
2019-06-10T10:31:27.974Z,36.20
2019-06-10T10:33:58.621Z,35.50
2019-06-10T10:36:29.806Z,35.20
2019-06-10T10:39:02.489Z,35.20
2019-06-10T10:41:32.574Z,35.60
2019-06-10T10:44:03.264Z,36.00
2019-06-10T10:46:35.388Z,35.90
2019-06-10T10:49:06.013Z,36.00
2019-06-10T10:51:43.420Z,36.40
2019-06-10T10:54:28.694Z,36.60
2019-06-10T10:56:49.172Z,36.50
2019-06-10T10:59:18.968Z,35.90
2019-06-10T11:01:49.505Z,36.00
2019-06-10T11:04:22.396Z,36.20
2019-06-10T11:06:55.231Z,36.30
2019-06-10T11:09:26.304Z,36.20
2019-06-10T11:12:02.906Z,35.60
2019-06-10T11:14:34.220Z,35.80
2019-06-10T11:17:04.923Z,36.20
2019-06-10T11:19:35.700Z,36.50
2019-06-10T11:22:06.216Z,36.50
2019-06-10T11:24:41.094Z,36.40
2019-06-10T11:27:08.985Z,36.40
2019-06-10T11:29:42.113Z,36.10
2019-06-10T11:32:11.766Z,36.10
2019-06-10T11:34:42.978Z,36.20
2019-06-10T11:37:13.535Z,36.20
2019-06-10T11:39:44.070Z,36.30
2019-06-10T11:42:14.667Z,36.10
2019-06-10T11:44:48.816Z,36.10
2019-06-10T11:47:22.819Z,36.20
2019-06-10T11:49:54.977Z,36.30
2019-06-10T11:52:24.800Z,36.30
2019-06-10T11:55:09.128Z,36.30
2019-06-10T11:57:28.434Z,36.10
2019-06-10T11:59:59.491Z,36.30
2019-06-10T12:02:30.307Z,36.30
2019-06-10T12:05:03.961Z,36.30
2019-06-10T12:07:33.244Z,36.30
2019-06-10T12:10:09.679Z,36.00
2019-06-10T12:12:40.215Z,36.00
2019-06-10T12:15:12.209Z,35.90
2019-06-10T12:17:50.917Z,35.90
2019-06-10T12:20:22.668Z,35.80
2019-06-10T12:22:56.582Z,35.70
2019-06-10T12:25:32.616Z,35.60
2019-06-10T12:27:59.710Z,35.10
2019-06-10T12:30:29.335Z,35.30
2019-06-10T12:33:02.825Z,35.00
2019-06-10T12:35:33.328Z,34.70
2019-06-10T12:38:06.292Z,34.60
2019-06-10T12:40:37.757Z,34.30
2019-06-10T12:43:08.889Z,34.10
2019-06-10T12:45:39.614Z,34.10
2019-06-10T12:48:10.172Z,34.20
2019-06-10T12:50:42.786Z,34.10
2019-06-10T12:53:13.564Z,34.10
2019-06-10T12:55:47.136Z,33.70
2019-06-10T12:58:17.362Z,33.80
2019-06-10T13:00:49.182Z,34.00
2019-06-10T13:03:19.795Z,33.70
2019-06-10T13:05:53.220Z,33.70
2019-06-10T13:08:26.951Z,33.60
2019-06-10T13:10:58.093Z,33.60
2019-06-10T13:13:28.681Z,34.10
2019-06-10T13:16:01.358Z,34.00
2019-06-10T13:18:31.416Z,34.30
2019-06-10T13:21:09.592Z,34.30
2019-06-10T13:23:35.431Z,34.20
2019-06-10T13:26:12.456Z,34.20
2019-06-10T13:28:39.848Z,34.10
2019-06-10T13:31:10.472Z,34.10
2019-06-10T13:33:42.915Z,33.90
2019-06-10T13:36:13.848Z,33.70
2019-06-10T13:38:44.954Z,33.70
2019-06-10T13:41:16.074Z,33.70
2019-06-10T13:43:46.577Z,33.80
2019-06-10T13:46:17.679Z,33.60
2019-06-10T13:48:52.173Z,33.70
2019-06-10T13:51:23.489Z,33.50
2019-06-10T13:53:54.019Z,33.70
2019-06-10T13:56:43.183Z,33.50
2019-06-10T13:58:56.833Z,33.40
2019-06-10T14:01:27.450Z,33.30
2019-06-10T14:03:58.017Z,33.20
2019-06-10T14:06:44.643Z,33.20
2019-06-10T14:09:04.729Z,33.20
2019-06-10T14:11:34.835Z,33.00
2019-06-10T14:14:05.874Z,33.00
2019-06-10T14:16:36.836Z,33.00
2019-06-10T14:19:09.353Z,32.70
2019-06-10T14:21:42.353Z,32.60
2019-06-10T14:24:15.807Z,32.60
2019-06-10T14:26:45.610Z,32.50
2019-06-10T14:29:17.016Z,32.50
2019-06-10T14:31:48.274Z,32.50
2019-06-10T14:34:19.053Z,32.50
2019-06-10T14:36:52.494Z,32.40
2019-06-10T14:39:22.627Z,32.30
2019-06-10T14:41:53.250Z,32.30
2019-06-10T14:44:23.800Z,32.30
2019-06-10T14:46:54.344Z,32.20
2019-06-10T14:49:26.308Z,32.10
2019-06-10T14:51:57.133Z,32.00
2019-06-10T14:54:27.717Z,32.10
2019-06-10T14:56:58.830Z,32.10
2019-06-10T14:59:29.504Z,31.90
2019-06-10T15:02:00.043Z,31.90
2019-06-10T15:04:33.157Z,31.50
2019-06-10T15:07:04.402Z,31.60
2019-06-10T15:09:34.950Z,31.60
2019-06-10T15:12:05.676Z,31.60
2019-06-10T15:14:37.478Z,31.60
2019-06-10T15:17:10.576Z,31.50
2019-06-10T15:19:42.500Z,31.30
2019-06-10T15:22:15.121Z,31.30
2019-06-10T15:24:45.572Z,31.30
2019-06-10T15:27:25.630Z,31.30
2019-06-10T15:29:48.905Z,31.30
2019-06-10T15:32:33.486Z,31.30
2019-06-10T15:34:52.522Z,31.30
2019-06-10T15:37:24.123Z,31.20
2019-06-10T15:39:54.848Z,31.20
2019-06-10T15:42:25.521Z,31.20
2019-06-10T15:44:59.109Z,31.20
2019-06-10T15:47:29.765Z,31.10
2019-06-10T15:50:03.006Z,31.00
2019-06-10T15:52:32.927Z,30.80
2019-06-10T16:01:16.462Z,30.60
2019-06-10T16:03:44.553Z,30.60
2019-06-10T16:06:16.071Z,30.50
2019-06-10T16:08:46.815Z,30.40
2019-06-10T16:11:20.011Z,30.40
2019-06-10T16:13:57.576Z,30.40
2019-06-10T16:16:28.255Z,30.40
2019-06-10T16:18:58.952Z,30.30
2019-06-10T16:21:29.509Z,30.20
2019-06-10T16:24:02.815Z,30.20
2019-06-10T16:26:35.466Z,30.00
2019-06-10T16:29:05.336Z,30.00
2019-06-10T16:31:35.879Z,29.80
2019-06-10T16:34:06.686Z,29.90
2019-06-10T16:36:38.227Z,29.90
2019-06-10T16:39:09.023Z,29.90
2019-06-10T16:41:40.215Z,29.90
2019-06-10T16:44:13.345Z,29.80
2019-06-10T16:46:43.253Z,29.80
2019-06-10T16:49:14.027Z,29.80
2019-06-10T16:51:45.270Z,29.80
2019-06-10T16:54:15.664Z,29.80
2019-06-10T16:56:46.230Z,29.70
2019-06-10T16:59:19.874Z,29.90
2019-06-10T17:01:53.065Z,29.70
2019-06-10T17:04:25.408Z,29.70
2019-06-10T17:06:55.261Z,29.50
2019-06-10T17:09:29.534Z,29.40
2019-06-10T17:12:02.224Z,29.40
2019-06-10T17:14:33.788Z,29.40
2019-06-10T17:17:04.496Z,29.40
2019-06-10T17:19:35.098Z,29.40
2019-06-10T17:22:05.731Z,29.40
2019-06-10T17:24:37.003Z,29.30
2019-06-10T17:27:07.599Z,29.30
2019-06-10T17:29:38.043Z,29.20
2019-06-10T17:32:08.670Z,29.30
2019-06-10T17:34:42.224Z,29.20
2019-06-10T17:37:12.589Z,29.20
2019-06-10T17:39:43.223Z,29.20
2019-06-10T17:42:13.796Z,29.20
2019-06-10T17:44:44.190Z,29.20
2019-06-10T17:47:14.655Z,29.20
2019-06-10T17:49:45.858Z,29.10
2019-06-10T17:52:17.333Z,29.10
2019-06-10T17:54:47.781Z,29.00
2019-06-10T17:57:18.463Z,28.90
2019-06-10T17:59:49.307Z,28.90
2019-06-10T18:02:22.655Z,28.90
2019-06-10T18:04:53.068Z,28.90
2019-06-10T18:07:24.087Z,28.90
2019-06-10T18:09:55.879Z,28.80
2019-06-10T18:12:26.396Z,28.80
2019-06-10T18:14:57.006Z,28.80
2019-06-10T18:17:28.748Z,28.80
2019-06-10T18:20:02.800Z,28.80
2019-06-10T18:22:37.142Z,28.70
2019-06-10T18:25:12.197Z,28.70
2019-06-10T18:27:43.213Z,28.50
2019-06-10T18:30:14.608Z,28.30
2019-06-10T18:32:45.127Z,28.20
2019-06-10T18:35:16.346Z,28.60
2019-06-10T18:37:46.881Z,28.30
2019-06-10T18:40:17.822Z,28.30
2019-06-10T18:42:48.450Z,28.30
2019-06-10T18:45:22.414Z,28.20
2019-06-10T18:47:53.866Z,28.10
2019-06-10T18:50:26.066Z,28.00
2019-06-10T18:52:59.352Z,27.90
2019-06-10T18:55:30.899Z,27.80
2019-06-10T18:58:02.516Z,27.70
2019-06-10T19:00:49.111Z,27.80
2019-06-10T19:03:12.991Z,27.80
2019-06-10T19:05:42.017Z,27.80
2019-06-10T19:08:14.038Z,27.80
2019-06-10T19:10:44.566Z,27.70
2019-06-10T19:13:16.600Z,27.70
2019-06-10T19:15:47.121Z,27.50
2019-06-10T19:18:18.674Z,27.60
2019-06-10T19:20:49.212Z,27.50
2019-06-10T19:23:22.151Z,27.20
2019-06-10T19:25:53.219Z,27.50
2019-06-10T19:28:25.432Z,27.40
2019-06-10T19:30:56.043Z,27.30
2019-06-10T19:33:26.645Z,27.20
2019-06-10T19:36:06.152Z,27.10
2019-06-10T19:38:38.390Z,27.10
2019-06-10T19:41:09.252Z,26.80
2019-06-10T19:43:45.319Z,26.90
2019-06-10T19:46:16.585Z,26.80
2019-06-10T19:48:56.950Z,26.60
2019-06-10T19:51:19.470Z,26.50
2019-06-10T19:53:52.710Z,26.40
2019-06-10T19:56:26.386Z,26.40
2019-06-10T19:58:55.860Z,26.30
2019-06-10T20:01:26.462Z,26.40
2019-06-10T20:03:57.459Z,26.40
2019-06-10T20:06:28.066Z,26.40
2019-06-10T20:08:58.647Z,26.20
2019-06-10T20:11:29.191Z,26.00
2019-06-10T20:14:02.372Z,26.00
2019-06-10T20:16:32.011Z,26.00
2019-06-10T20:19:03.153Z,25.90
2019-06-10T20:21:34.478Z,25.80
2019-06-10T20:24:05.867Z,25.50
2019-06-10T20:26:36.792Z,25.60
2019-06-10T20:29:07.448Z,25.50
2019-06-10T20:31:38.366Z,25.60
2019-06-10T20:34:09.009Z,25.40
2019-06-10T20:36:43.481Z,25.20
2019-06-10T20:39:14.061Z,25.20
2019-06-10T20:41:50.355Z,25.20
2019-06-10T20:44:17.453Z,25.20
2019-06-10T20:46:49.282Z,25.30
2019-06-10T20:49:22.322Z,25.10
2019-06-10T20:52:07.140Z,25.10
2019-06-10T22:36:45.485Z,22.70
2019-06-10T22:39:16.066Z,22.40
2019-06-10T22:41:49.018Z,22.40
2019-06-10T22:44:19.583Z,22.40
2019-06-10T22:46:52.167Z,22.20
2019-06-10T22:49:23.643Z,22.50
2019-06-10T22:51:56.537Z,22.40
2019-06-10T22:54:27.091Z,22.40
2019-06-10T22:56:58.390Z,22.10
2019-06-10T22:59:29.816Z,22.30
2019-06-10T23:02:02.844Z,22.30
2019-06-10T23:04:33.301Z,22.30
2019-06-10T23:07:04.689Z,22.30
2019-06-10T23:09:35.400Z,22.30
2019-06-10T23:12:06.045Z,22.30
2019-06-10T23:14:36.706Z,22.30
2019-06-10T23:17:07.216Z,22.00
2019-06-10T23:19:38.709Z,22.10
2019-06-10T23:22:09.223Z,22.10
2019-06-10T23:24:39.812Z,22.00
2019-06-10T23:27:12.967Z,21.90
2019-06-10T23:29:42.941Z,21.80
2019-06-10T23:32:13.347Z,21.90
2019-06-10T23:34:43.954Z,21.90
2019-06-10T23:37:15.298Z,21.70
2019-06-10T23:39:46.103Z,21.90
2019-06-10T23:42:16.724Z,21.90
2019-06-10T23:44:47.241Z,21.90
2019-06-10T23:47:17.750Z,21.80
2019-06-10T23:49:48.204Z,21.70
2019-06-10T23:52:18.714Z,21.80
2019-06-10T23:54:49.218Z,21.70
2019-06-10T23:57:22.214Z,21.80
2019-06-10T23:59:52.542Z,21.80
